Time;durP1;ratioP1;P1;durP2;ratioP2;P2;SDS_P1;SDS_P2;PMS_P1;PMS_P2;Temp;Humidity;BMP_temperature;BMP_pressure;BME280_temperature;BME280_humidity;BME280_pressure;Samples;Min_cycle;Max_cycle;Signal;HPM_P1;HPM_P2
2022/05/21 00:02:07;;;;;;;2.28;1.92;;;;;;;16.09;60.70;99371.00;2623242;54;20026;-64
2022/05/21 00:04:41;;;;;;;4.10;2.15;;;;;;;16.04;60.77;99367.31;2623711;54;20149;-65
2022/05/21 00:07:11;;;;;;;2.92;2.08;;;;;;;16.01;60.60;99373.09;2624113;54;20038;-63
2022/05/21 00:09:41;;;;;;;2.70;2.15;;;;;;;15.97;60.69;99378.03;2622496;39;20462;-64
2022/05/21 00:12:11;;;;;;;2.83;1.90;;;;;;;15.87;60.81;99385.66;2620871;54;20026;-64
2022/05/21 00:14:41;;;;;;;5.63;2.70;;;;;;;15.71;61.29;99378.97;2620663;54;20026;-65
2022/05/21 00:17:10;;;;;;;2.33;2.13;;;;;;;15.73;61.39;99386.78;2620409;54;20047;-65
2022/05/21 00:19:42;;;;;;;3.33;2.22;;;;;;;15.65;61.32;99389.69;2620765;54;20046;-65
2022/05/21 00:22:12;;;;;;;2.45;2.25;;;;;;;15.58;61.57;99398.47;2621179;54;20033;-64
2022/05/21 00:24:41;;;;;;;3.45;2.40;;;;;;;15.53;61.75;99395.63;2621268;47;20074;-63
2022/05/21 00:27:11;;;;;;;3.28;2.10;;;;;;;15.50;62.19;99398.69;2621187;54;20030;-63
2022/05/21 00:29:41;;;;;;;4.22;2.53;;;;;;;15.42;61.92;99401.59;2621225;47;20037;-64
2022/05/21 00:32:11;;;;;;;2.30;2.10;;;;;;;15.42;62.26;99414.91;2621765;54;20042;-65
2022/05/21 00:34:43;;;;;;;2.30;2.13;;;;;;;15.43;61.96;99410.41;2621992;54;20032;-65
2022/05/21 00:37:13;;;;;;;2.55;2.30;;;;;;;15.42;61.54;99420.25;2622114;39;20443;-65
2022/05/21 00:39:42;;;;;;;5.00;2.22;;;;;;;15.30;61.66;99419.25;2621663;54;20038;-64
2022/05/21 00:42:12;;;;;;;2.30;2.10;;;;;;;15.27;61.61;99415.16;2621953;54;20027;-65
2022/05/21 00:44:42;;;;;;;4.05;2.47;;;;;;;15.30;62.07;99424.56;2622460;54;20037;-64
2022/05/21 00:47:12;;;;;;;3.42;2.42;;;;;;;15.36;61.75;99423.75;2622221;54;20523;-65
2022/05/21 00:49:44;;;;;;;2.50;2.25;;;;;;;15.28;61.86;99423.97;2622695;54;20026;-64
2022/05/21 00:52:20;;;;;;;3.35;2.05;;;;;;;15.19;61.73;99422.56;2622920;54;20031;-64
2022/05/21 00:54:53;;;;;;;2.50;2.30;;;;;;;15.21;61.56;99431.97;2622536;54;20031;-65
2022/05/21 00:57:29;;;;;;;2.88;2.50;;;;;;;15.14;61.83;99425.81;2622371;54;20026;-65
2022/05/21 01:00:01;;;;;;;2.30;2.10;;;;;;;15.15;61.86;99432.00;2622253;54;20038;-65
2022/05/21 01:02:35;;;;;;;2.63;2.10;;;;;;;15.09;61.75;99429.09;2622324;47;20077;-65
2022/05/21 01:05:12;;;;;;;4.47;2.45;;;;;;;15.03;61.85;99434.47;2622290;54;20621;-65
2022/05/21 01:07:44;;;;;;;3.75;2.17;;;;;;;15.04;62.37;99430.75;2622948;54;20034;-64
2022/05/21 01:10:18;;;;;;;3.97;2.67;;;;;;;15.03;61.92;99443.25;2624077;54;20043;-64
2022/05/21 01:12:50;;;;;;;3.10;2.35;;;;;;;14.98;62.03;99437.75;2623399;47;20034;-64
2022/05/21 01:15:24;;;;;;;2.15;2.00;;;;;;;14.91;61.88;99446.75;2623577;54;20042;-64
2022/05/21 01:17:54;;;;;;;2.50;2.30;;;;;;;14.90;62.25;99447.75;2623996;54;20554;-64
2022/05/21 01:20:37;;;;;;;2.20;1.95;;;;;;;14.82;62.12;99446.94;2623338;46;20030;-64
2022/05/21 01:23:10;;;;;;;2.88;2.00;;;;;;;14.81;61.74;99442.63;2623827;54;20027;-65
2022/05/21 01:25:41;;;;;;;3.22;2.20;;;;;;;14.80;61.95;99437.53;2624197;54;20066;-64
2022/05/21 01:28:13;;;;;;;3.95;2.15;;;;;;;14.68;61.94;99450.59;2623710;54;20042;-65
2022/05/21 01:30:46;;;;;;;3.75;1.90;;;;;;;14.68;61.99;99453.28;2623476;54;20038;-64
2022/05/21 01:33:18;;;;;;;2.00;1.88;;;;;;;14.65;61.96;99455.50;2624454;39;20479;-64
2022/05/21 01:35:49;;;;;;;3.20;2.10;;;;;;;14.62;62.13;99459.41;2623402;54;20559;-64
2022/05/21 01:38:24;;;;;;;2.03;1.60;;;;;;;14.60;62.07;99458.78;2621706;54;20037;-65
2022/05/21 01:40:54;;;;;;;4.05;1.80;;;;;;;14.57;61.94;99468.00;2624510;46;20073;-66
2022/05/21 01:46:06;;;;;;;2.20;1.92;;;;;;;14.52;61.96;99469.63;2622511;54;20684;-64
2022/05/21 01:48:36;;;;;;;2.08;1.98;;;;;;;14.56;62.18;99474.34;2622354;54;20030;-65
2022/05/21 01:51:07;;;;;;;2.03;1.83;;;;;;;14.46;61.72;99473.06;2622403;54;20050;-64
2022/05/21 01:53:41;;;;;;;2.38;1.95;;;;;;;14.44;62.04;99472.44;2622506;54;20042;-65
2022/05/21 01:56:13;;;;;;;2.45;1.80;;;;;;;14.42;62.15;99479.81;2622597;54;20035;-63
2022/05/21 01:58:43;;;;;;;4.20;1.98;;;;;;;14.34;61.67;99480.81;2619602;47;20043;-63
2022/05/21 02:01:13;;;;;;;4.88;2.08;;;;;;;14.30;61.91;99475.06;2619525;54;20039;-63
2022/05/21 02:03:43;;;;;;;2.55;1.80;;;;;;;14.25;62.04;99474.03;2619689;47;20031;-64
2022/05/21 02:06:12;;;;;;;2.28;1.60;;;;;;;14.21;62.42;99476.28;2620835;54;20038;-64
2022/05/21 02:08:45;;;;;;;1.85;1.75;;;;;;;14.23;62.58;99481.38;2620524;54;20031;-64
2022/05/21 02:11:15;;;;;;;1.90;1.70;;;;;;;14.26;62.33;99483.66;2621125;54;20034;-65
2022/05/21 02:13:44;;;;;;;2.20;2.00;;;;;;;14.27;62.41;99480.78;2620020;46;20027;-65
2022/05/21 02:16:14;;;;;;;2.13;1.92;;;;;;;14.25;62.49;99477.50;2623761;54;20034;-65
2022/05/21 02:18:44;;;;;;;2.17;1.88;;;;;;;14.24;62.47;99478.50;2624232;54;20034;-64
2022/05/21 02:21:13;;;;;;;4.25;1.70;;;;;;;14.24;62.54;99483.84;2624368;54;20044;-66
2022/05/21 02:23:46;;;;;;;3.15;1.83;;;;;;;14.19;62.17;99477.47;2623112;47;20046;-65
2022/05/21 02:26:17;;;;;;;1.95;1.73;;;;;;;14.09;62.41;99491.97;2623286;31;20507;-64
2022/05/21 02:28:46;;;;;;;3.28;1.95;;;;;;;14.07;62.71;99491.34;2621404;54;20030;-63
2022/05/21 02:31:16;;;;;;;3.78;1.88;;;;;;;14.06;62.48;99489.72;2622682;54;20046;-63
2022/05/21 02:33:46;;;;;;;2.72;2.17;;;;;;;14.08;62.47;99487.69;2621693;54;20066;-65
2022/05/21 02:36:16;;;;;;;3.00;1.85;;;;;;;14.05;62.78;99489.91;2622890;47;20168;-63
2022/05/21 02:41:32;;;;;;;2.30;1.67;;;;;;;14.04;63.00;99490.91;2621719;47;20023;-65
2022/05/21 02:44:02;;;;;;;1.90;1.80;;;;;;;14.06;62.69;99491.56;2621998;54;20030;-65
2022/05/21 02:46:32;;;;;;;2.85;2.05;;;;;;;14.13;63.04;99490.56;2622162;54;20034;-63
2022/05/21 02:49:01;;;;;;;2.03;1.73;;;;;;;14.13;62.91;99493.22;2621663;54;20034;-64
2022/05/21 02:51:31;;;;;;;3.00;1.70;;;;;;;14.09;62.82;99499.94;2619540;54;20081;-63
2022/05/21 02:54:03;;;;;;;1.83;1.63;;;;;;;14.14;62.95;99494.03;2620103;54;20031;-65
2022/05/21 02:56:33;;;;;;;1.95;1.73;;;;;;;14.13;63.22;99503.84;2620345;54;20018;-64
2022/05/21 02:59:06;;;;;;;2.10;2.00;;;;;;;14.08;63.42;99503.63;2620179;54;20034;-65
2022/05/21 03:01:36;;;;;;;1.70;1.60;;;;;;;14.08;63.47;99503.63;2621733;54;20026;-67
2022/05/21 03:04:07;;;;;;;3.33;2.08;;;;;;;14.03;63.67;99495.41;2621220;39;20404;-64
2022/05/21 03:06:38;;;;;;;3.20;2.03;;;;;;;13.96;64.04;99502.56;2620900;54;20037;-64
2022/05/21 03:11:52;;;;;;;4.47;2.28;;;;;;;13.95;64.39;99511.53;2621758;54;20038;-64
2022/05/21 03:14:22;;;;;;;6.93;2.80;;;;;;;13.94;64.64;99509.91;2621968;54;20053;-66
2022/05/21 03:16:56;;;;;;;2.58;2.38;;;;;;;13.88;64.50;99508.84;2622660;39;20443;-63
2022/05/21 03:19:26;;;;;;;3.67;2.33;;;;;;;13.86;64.64;99505.56;2621801;54;20074;-65
2022/05/21 03:21:56;;;;;;;4.13;2.75;;;;;;;13.83;64.82;99502.47;2622204;54;20130;-63
2022/05/21 03:24:29;;;;;;;5.53;2.72;;;;;;;13.77;65.29;99506.75;2621911;54;20034;-64
2022/05/21 03:26:59;;;;;;;2.45;2.05;;;;;;;13.74;65.76;99501.00;2621464;47;20038;-64
2022/05/21 03:29:29;;;;;;;4.30;2.42;;;;;;;13.62;65.57;99503.38;2622004;54;20050;-65
2022/05/21 03:31:59;;;;;;;3.80;2.30;;;;;;;13.55;66.01;99500.69;2623030;39;20438;-64
2022/05/21 03:34:30;;;;;;;2.97;2.33;;;;;;;13.46;66.35;99507.16;2622678;54;20022;-64
2022/05/21 03:36:59;;;;;;;3.90;2.53;;;;;;;13.46;66.73;99509.81;2622177;51;20042;-64
2022/05/21 03:39:32;;;;;;;3.40;2.05;;;;;;;13.48;66.27;99509.63;2622702;47;20034;-64
2022/05/21 03:42:01;;;;;;;2.30;2.10;;;;;;;13.49;66.47;99513.91;2622266;54;20031;-65
2022/05/21 03:44:31;;;;;;;6.63;4.10;;;;;;;13.50;66.17;99511.06;2622886;54;20027;-64
2022/05/21 03:47:02;;;;;;;3.47;2.40;;;;;;;13.50;66.50;99515.56;2623456;54;20034;-64
2022/05/21 03:49:32;;;;;;;2.22;2.03;;;;;;;13.51;66.54;99518.03;2623330;47;20034;-64
2022/05/21 03:52:02;;;;;;;2.53;2.30;;;;;;;13.54;66.67;99522.13;2623803;54;20565;-64
2022/05/21 03:54:34;;;;;;;3.72;2.33;;;;;;;13.52;66.35;99517.00;2623281;47;20037;-64
2022/05/21 03:57:04;;;;;;;5.18;2.47;;;;;;;13.53;66.03;99516.00;2623978;54;20550;-64
2022/05/21 03:59:34;;;;;;;2.75;2.20;;;;;;;13.54;66.10;99520.28;2623905;54;20038;-64
2022/05/21 04:02:05;;;;;;;3.58;2.28;;;;;;;13.48;66.23;99531.69;2623549;47;20030;-65
2022/05/21 04:04:35;;;;;;;4.38;2.80;;;;;;;13.46;66.71;99527.59;2623650;47;20030;-64
2022/05/21 04:07:06;;;;;;;4.25;2.47;;;;;;;13.43;66.76;99527.97;2622986;54;20573;-63
2022/05/21 04:09:38;;;;;;;4.25;2.50;;;;;;;13.48;66.69;99522.91;2623214;54;20030;-63
2022/05/21 04:12:09;;;;;;;4.53;3.15;;;;;;;13.49;66.87;99524.53;2622944;54;20030;-64
2022/05/21 04:14:38;;;;;;;4.35;2.42;;;;;;;13.47;67.21;99529.22;2622664;54;20059;-64
2022/05/21 04:17:13;;;;;;;2.78;2.58;;;;;;;13.47;67.26;99535.38;2622026;54;20019;-64
2022/05/21 04:19:44;;;;;;;3.85;3.33;;;;;;;13.48;67.11;99534.34;2621676;47;20110;-65
2022/05/21 04:22:13;;;;;;;4.78;3.05;;;;;;;13.47;67.52;99537.19;2621798;54;20561;-65
2022/05/21 04:24:46;;;;;;;6.95;3.60;;;;;;;13.48;67.28;99538.84;2621132;47;20049;-64
2022/05/21 04:27:15;;;;;;;3.03;2.58;;;;;;;13.48;67.44;99541.50;2621605;54;20035;-65
2022/05/21 04:29:45;;;;;;;5.25;3.50;;;;;;;13.45;67.72;99552.50;2621790;54;20037;-64
2022/05/21 04:32:14;;;;;;;4.15;3.75;;;;;;;13.48;67.91;99541.50;2621854;54;20050;-66
2022/05/21 04:34:44;;;;;;;4.05;3.03;;;;;;;13.56;67.73;99544.84;2621231;54;20026;-64
2022/05/21 04:37:14;;;;;;;7.70;3.38;;;;;;;13.59;67.71;99540.94;2621946;54;20026;-64
2022/05/21 04:39:46;;;;;;;3.75;3.28;;;;;;;13.53;67.93;99545.22;2622644;54;20022;-63
2022/05/21 04:42:16;;;;;;;4.95;3.50;;;;;;;13.59;68.08;99546.25;2622570;54;20038;-63
2022/05/21 04:44:45;;;;;;;6.20;3.25;;;;;;;13.66;68.08;99548.97;2622345;54;20035;-64
2022/05/21 04:47:15;;;;;;;5.70;3.60;;;;;;;13.65;67.63;99550.00;2623720;39;20686;-63
2022/05/21 04:49:44;;;;;;;5.43;3.72;;;;;;;13.70;67.72;99558.19;2622921;54;20066;-63
2022/05/21 04:52:14;;;;;;;3.42;3.13;;;;;;;13.80;67.61;99558.69;2623525;54;20038;-64
2022/05/21 04:54:46;;;;;;;6.15;3.58;;;;;;;13.85;67.05;99553.59;2623483;54;20030;-64
2022/05/21 04:57:16;;;;;;;9.45;3.88;;;;;;;13.88;66.78;99559.34;2621387;54;20042;-63
2022/05/21 04:59:46;;;;;;;6.22;3.38;;;;;;;13.98;66.92;99553.66;2621217;54;20038;-64
2022/05/21 05:02:22;;;;;;;4.07;2.55;;;;;;;14.04;67.05;99562.69;2621641;54;20558;-65
2022/05/21 05:04:52;;;;;;;4.93;2.85;;;;;;;14.17;66.41;99557.47;2621692;54;20042;-64
2022/05/21 05:07:23;;;;;;;5.70;3.10;;;;;;;14.23;66.47;99561.97;2621090;54;20029;-64
2022/05/21 05:09:56;;;;;;;4.13;2.67;;;;;;;14.30;66.28;99562.03;2621389;54;20030;-64
2022/05/21 05:12:25;;;;;;;4.70;3.53;;;;;;;14.22;65.89;99565.66;2622007;54;20026;-65
2022/05/21 05:14:55;;;;;;;5.93;2.75;;;;;;;14.24;65.80;99571.59;2622294;54;20035;-64
2022/05/21 05:17:30;;;;;;;8.43;3.50;;;;;;;14.35;65.50;99556.91;2621566;54;20041;-64
2022/05/21 05:20:00;;;;;;;3.50;3.03;;;;;;;14.49;65.49;99566.63;2621313;47;20034;-64
2022/05/21 05:22:30;;;;;;;7.65;3.70;;;;;;;14.54;64.99;99564.19;2621362;54;20026;-66
2022/05/21 05:25:09;;;;;;;7.05;4.32;;;;;;;14.56;64.89;99563.97;2619852;54;20691;-64
2022/05/21 05:27:38;;;;;;;;;;;;;;;14.60;64.85;99562.56;2619592;54;20034;-64
2022/05/21 05:30:09;;;;;;;7.10;4.15;;;;;;;14.74;64.21;99563.44;2618983;47;19938;-66
2022/05/21 05:32:39;;;;;;;4.40;3.30;;;;;;;14.90;64.51;99572.88;2619743;54;20034;-65
2022/05/21 05:35:10;;;;;;;5.85;4.32;;;;;;;14.96;63.84;99570.22;2618940;54;20026;-65
2022/05/21 05:37:46;;;;;;;6.78;4.15;;;;;;;14.93;63.72;99570.63;2619756;54;20022;-65
2022/05/21 05:40:23;;;;;;;6.43;4.10;;;;;;;15.00;63.53;99563.47;2619234;54;20057;-65
2022/05/21 05:42:52;;;;;;;7.40;4.75;;;;;;;14.98;63.58;99565.53;2620589;54;20026;-66
2022/05/21 05:45:22;;;;;;;6.30;4.43;;;;;;;15.00;63.11;99567.97;2620824;54;20037;-65
2022/05/21 05:47:52;;;;;;;5.68;4.75;;;;;;;14.95;63.07;99559.78;2621088;54;20125;-65
2022/05/21 05:50:22;;;;;;;8.38;5.10;;;;;;;14.89;63.35;99563.25;2620876;39;20454;-65
2022/05/21 05:52:52;;;;;;;9.73;5.28;;;;;;;14.85;62.93;99565.47;2621411;54;20042;-64
2022/05/21 05:55:25;;;;;;;6.50;5.05;;;;;;;14.82;63.13;99564.06;2623421;54;20038;-64
2022/05/21 05:57:55;;;;;;;7.50;5.05;;;;;;;14.88;63.04;99570.41;2622575;54;20049;-63
2022/05/21 06:00:22;;;;;;;8.35;5.43;;;;;;;14.93;63.16;99570.63;2622283;51;20038;-63
2022/05/21 06:03:02;;;;;;;9.18;5.82;;;;;;;15.05;62.81;99573.50;2622719;54;20035;-64
2022/05/21 06:05:35;;;;;;;8.70;5.50;;;;;;;15.28;62.61;99570.47;2622595;47;20054;-63
2022/05/21 06:08:07;;;;;;;8.88;6.07;;;;;;;15.41;62.08;99575.78;2622925;54;20038;-63
2022/05/21 06:10:45;;;;;;;6.60;5.90;;;;;;;15.46;61.75;99568.00;2621334;47;20049;-63
2022/05/21 06:13:15;;;;;;;7.00;6.30;;;;;;;15.49;61.29;99570.25;2622580;54;20030;-64
2022/05/21 06:15:46;;;;;;;6.90;6.20;;;;;;;15.53;61.05;99574.16;2622356;54;20027;-64
2022/05/21 06:18:19;;;;;;;9.40;6.30;;;;;;;15.55;60.98;99574.78;2622211;54;20079;-64
2022/05/21 06:20:51;;;;;;;8.65;6.68;;;;;;;15.69;60.59;99569.47;2622437;54;20213;-64
2022/05/21 06:23:22;;;;;;;6.68;6.05;;;;;;;15.65;60.21;99576.25;2622299;54;20061;-66
2022/05/21 06:25:54;;;;;;;8.88;6.60;;;;;;;15.70;60.67;99569.25;2622627;54;20027;-64
2022/05/21 06:28:24;;;;;;;7.78;5.93;;;;;;;15.77;60.47;99579.91;2622573;54;20026;-64
2022/05/21 06:30:53;;;;;;;7.30;5.45;;;;;;;15.84;59.16;99580.72;2621831;46;20031;-64
2022/05/21 06:33:25;;;;;;;10.63;6.05;;;;;;;15.94;59.38;99581.09;2622244;47;20030;-65
2022/05/21 06:36:06;;;;;;;7.03;5.57;;;;;;;16.06;59.03;99575.97;2622524;54;20031;-64
2022/05/21 06:38:40;;;;;;;7.13;4.70;;;;;;;16.04;57.95;99567.34;2621865;54;20523;-64
2022/05/21 06:41:13;;;;;;;5.97;4.45;;;;;;;15.91;58.15;99570.03;2621126;54;20107;-65
2022/05/21 06:43:49;;;;;;;10.73;5.47;;;;;;;15.94;58.28;99573.09;2620707;54;20046;-65
2022/05/21 06:46:19;;;;;;;4.32;3.75;;;;;;;16.01;57.67;99571.25;2620142;54;20577;-64
2022/05/21 06:48:49;;;;;;;6.60;3.80;;;;;;;15.91;57.56;99575.38;2620552;54;20041;-64
2022/05/21 06:51:19;;;;;;;4.22;3.67;;;;;;;15.78;57.56;99577.03;2619987;54;20038;-64
2022/05/21 06:53:49;;;;;;;4.28;3.72;;;;;;;15.78;57.80;99577.03;2620905;54;20042;-64
2022/05/21 06:56:22;;;;;;;7.22;4.07;;;;;;;15.83;58.26;99584.41;2620803;54;20036;-65
2022/05/21 06:58:52;;;;;;;6.38;3.55;;;;;;;15.91;57.93;99565.53;2621020;54;20566;-67
2022/05/21 07:01:22;;;;;;;8.60;3.50;;;;;;;16.12;58.08;99571.63;2620734;47;20066;-66
2022/05/21 07:03:52;;;;;;;4.60;3.83;;;;;;;16.21;57.25;99562.38;2619282;54;20026;-65
2022/05/21 07:09:04;;;;;;;8.75;3.03;;;;;;;16.46;56.20;99565.16;2621990;54;20034;-65
2022/05/21 07:11:37;;;;;;;4.75;2.65;;;;;;;16.56;55.88;99570.84;2622363;54;20061;-64
2022/05/21 07:14:06;;;;;;;5.43;2.55;;;;;;;16.45;56.26;99571.50;2623225;51;20034;-64
2022/05/21 07:16:39;;;;;;;5.05;2.40;;;;;;;16.42;55.97;99571.94;2624646;54;20046;-64
2022/05/21 07:19:09;;;;;;;4.43;2.63;;;;;;;16.55;56.02;99575.38;2623282;54;20026;-64
2022/05/21 07:21:39;;;;;;;4.38;2.63;;;;;;;16.52;55.99;99577.63;2623606;54;20042;-64
2022/05/21 07:24:09;;;;;;;3.78;2.78;;;;;;;16.50;55.86;99574.38;2622936;54;20046;-64
2022/05/21 07:26:43;;;;;;;4.50;2.60;;;;;;;16.62;55.66;99570.00;2623685;54;20045;-65
2022/05/21 07:29:12;;;;;;;5.20;3.03;;;;;;;16.74;55.99;99581.69;2622886;54;20042;-65
2022/05/21 07:31:42;;;;;;;4.22;2.17;;;;;;;16.92;55.79;99577.47;2624183;54;20031;-65
2022/05/21 07:34:11;;;;;;;4.53;2.58;;;;;;;16.98;55.11;99580.09;2623726;54;20028;-65
2022/05/21 07:36:41;;;;;;;4.38;2.45;;;;;;;16.97;55.00;99578.44;2623637;54;20613;-65
2022/05/21 07:39:11;;;;;;;5.45;2.40;;;;;;;16.96;54.89;99579.50;2621664;54;20045;-64
2022/05/21 07:41:43;;;;;;;4.40;2.22;;;;;;;17.07;54.32;99573.47;2621576;54;20026;-64
2022/05/21 07:44:12;;;;;;;6.40;2.60;;;;;;;17.21;53.94;99586.72;2620752;51;20033;-63
2022/05/21 07:46:44;;;;;;;3.10;2.30;;;;;;;17.33;54.28;99590.34;2620747;46;20557;-64
2022/05/21 07:49:13;;;;;;;6.45;3.08;;;;;;;17.57;53.70;99586.03;2620988;54;20106;-64
2022/05/21 07:51:43;;;;;;;5.10;2.20;;;;;;;17.72;52.47;99583.84;2620818;54;20034;-64
2022/05/21 07:54:12;;;;;;;4.13;2.05;;;;;;;17.79;52.43;99592.63;2620716;54;20142;-64
2022/05/21 07:56:45;;;;;;;6.45;2.25;;;;;;;17.81;52.19;99589.75;2621083;54;20031;-64
2022/05/21 07:59:14;;;;;;;6.15;2.72;;;;;;;17.67;52.57;99586.34;2621073;54;20535;-63
2022/05/21 08:01:44;;;;;;;6.97;2.42;;;;;;;17.73;52.33;99596.16;2621100;54;20038;-64
2022/05/21 08:04:14;;;;;;;3.45;2.00;;;;;;;17.90;51.43;99591.09;2621211;54;20027;-64
2022/05/21 08:06:44;;;;;;;2.80;1.60;;;;;;;17.93;51.22;99595.19;2621058;47;20034;-65
2022/05/21 08:09:14;;;;;;;3.65;2.20;;;;;;;17.79;51.81;99597.97;2620550;54;20047;-65
2022/05/21 08:11:47;;;;;;;3.70;1.85;;;;;;;17.71;51.28;99600.91;2620024;54;20045;-64
2022/05/21 08:14:18;;;;;;;4.43;1.80;;;;;;;17.74;51.42;99592.47;2618734;39;20434;-65
2022/05/21 08:16:49;;;;;;;4.65;1.92;;;;;;;17.90;50.95;99579.59;2619660;54;20081;-64
2022/05/21 08:19:19;;;;;;;4.00;1.77;;;;;;;18.17;50.58;99575.59;2620602;39;20412;-65
2022/05/21 08:21:49;;;;;;;5.10;1.50;;;;;;;18.29;50.26;99573.81;2620652;54;20037;-65
2022/05/21 08:27:03;;;;;;;3.78;1.60;;;;;;;18.29;49.99;99584.53;2619212;54;20035;-65
2022/05/21 08:29:36;;;;;;;5.32;1.80;;;;;;;18.25;49.96;99572.63;2619822;54;20090;-64
2022/05/21 08:32:09;;;;;;;5.50;1.88;;;;;;;18.35;49.97;99564.06;2618975;54;20042;-64
2022/05/21 08:34:39;;;;;;;5.18;1.80;;;;;;;18.59;48.97;99559.63;2619476;54;20019;-63
2022/05/21 08:37:08;;;;;;;3.92;1.80;;;;;;;18.37;49.04;99556.63;2619707;47;20042;-64
2022/05/21 08:39:38;;;;;;;3.38;1.42;;;;;;;18.41;49.56;99573.03;2620931;39;20498;-65
2022/05/21 08:42:14;;;;;;;3.75;1.48;;;;;;;18.46;48.25;99557.94;2620239;54;20042;-63
2022/05/21 08:44:48;;;;;;;3.75;1.33;;;;;;;18.63;47.99;99563.50;2620421;54;20037;-64
2022/05/21 08:47:23;;;;;;;3.90;1.70;;;;;;;18.66;47.62;99563.06;2621155;54;20045;-64
2022/05/21 08:49:58;;;;;;;4.68;1.40;;;;;;;18.88;47.32;99566.06;2622582;54;20085;-65
2022/05/21 08:52:32;;;;;;;4.13;1.83;;;;;;;18.73;46.19;99558.44;2622593;47;20571;-64
2022/05/21 08:55:07;;;;;;;3.83;1.27;;;;;;;18.61;47.40;99552.19;2621816;54;20089;-67
2022/05/21 08:57:46;;;;;;;2.80;1.42;;;;;;;18.61;47.60;99554.84;2621850;54;20026;-65
2022/05/21 09:00:22;;;;;;;3.25;1.33;;;;;;;18.69;48.04;99565.25;2621579;54;20042;-66
2022/05/21 09:02:54;;;;;;;5.05;1.25;;;;;;;18.67;47.08;99574.56;2622821;54;20038;-67
2022/05/21 09:05:26;;;;;;;2.45;1.10;;;;;;;18.66;47.15;99562.25;2623449;54;20581;-65
2022/05/21 09:08:06;;;;;;;3.35;1.40;;;;;;;18.62;46.80;99555.72;2621887;54;20035;-68
2022/05/21 09:10:46;;;;;;;3.95;1.73;;;;;;;18.52;46.67;99553.53;2622644;39;20403;-66
2022/05/21 09:13:21;;;;;;;3.10;1.80;;;;;;;18.46;46.78;99549.09;2622439;54;20031;-66
2022/05/21 09:18:34;;;;;;;3.10;1.10;;;;;;;18.59;46.67;99545.44;2622120;54;20045;-65
2022/05/21 09:21:08;;;;;;;4.22;1.40;;;;;;;18.47;46.76;99540.84;2623553;54;20041;-67
2022/05/21 09:23:49;;;;;;;3.47;1.55;;;;;;;18.51;46.03;99539.34;2623178;54;20031;-66
2022/05/21 09:26:20;;;;;;;4.15;1.52;;;;;;;18.45;46.52;99539.41;2622827;54;20018;-66
2022/05/21 09:28:53;;;;;;;3.65;1.60;;;;;;;18.50;46.33;99537.72;2623888;39;20454;-65
2022/05/21 09:31:33;;;;;;;5.17;1.70;;;;;;;18.55;45.71;99532.50;2623323;54;20046;-66
2022/05/21 09:34:15;;;;;;;8.63;1.95;;;;;;;18.57;45.86;99534.94;2622576;54;20031;-66
2022/05/21 09:36:44;;;;;;;4.55;1.80;;;;;;;18.77;45.98;99518.63;2623602;54;20038;-66
2022/05/21 09:39:37;;;;;;;2.67;1.60;;;;;;;18.95;45.70;99523.13;2622897;54;20042;-66
2022/05/21 09:45:22;;;;;;;6.22;1.48;;;;;;;19.12;45.46;99520.59;2622950;54;20046;-65
2022/05/21 09:45:26;;;;;;;2.55;1.40;;;;;;;19.17;44.52;99515.34;2624046;47;20034;-67
2022/05/21 09:48:15;;;;;;;1.98;1.30;;;;;;;19.34;45.02;99515.47;2626033;54;20034;-69
2022/05/21 09:50:49;;;;;;;6.35;1.83;;;;;;;19.53;43.83;99519.69;2625827;54;20045;-67
2022/05/21 09:53:31;;;;;;;3.75;1.35;;;;;;;19.90;43.05;99531.00;2623626;54;20034;-67
2022/05/21 09:56:08;;;;;;;2.38;1.30;;;;;;;19.88;42.39;99517.00;2621990;54;20041;-67
2022/05/21 09:58:41;;;;;;;5.28;1.27;;;;;;;19.61;42.74;99516.69;2622640;54;20042;-67
2022/05/21 10:01:16;;;;;;;4.40;1.30;;;;;;;19.43;42.48;99517.59;2623989;39;20470;-66
2022/05/21 10:03:50;;;;;;;3.75;1.40;;;;;;;19.53;42.15;99523.16;2623672;54;20046;-69
2022/05/21 10:06:27;;;;;;;3.28;1.25;;;;;;;19.73;42.63;99519.34;2623904;54;20026;-67
2022/05/21 10:11:53;;;;;;;2.92;1.45;;;;;;;20.21;41.59;99502.94;2623389;54;20063;-69
2022/05/21 10:14:27;;;;;;;4.75;1.92;;;;;;;20.34;41.66;99514.44;2622687;54;20027;-67
2022/05/21 10:17:03;;;;;;;3.88;1.25;;;;;;;20.35;40.81;99505.31;2622409;47;20054;-66
2022/05/21 10:19:39;;;;;;;1.80;1.30;;;;;;;20.42;40.75;99508.69;2623100;54;20078;-67
2022/05/21 10:22:18;;;;;;;6.20;1.45;;;;;;;20.48;41.03;99497.81;2625232;39;20430;-68
2022/05/21 10:24:59;;;;;;;3.40;1.25;;;;;;;20.54;40.24;99501.44;2623999;54;20038;-71
2022/05/21 10:27:52;;;;;;;2.72;1.20;;;;;;;20.45;40.60;99506.34;2623488;54;20040;-68
2022/05/21 10:30:28;;;;;;;3.95;1.42;;;;;;;20.42;40.87;99501.44;2623265;54;20046;-68
2022/05/21 10:33:10;;;;;;;6.40;1.42;;;;;;;20.64;41.26;99506.16;2620863;47;20557;-68
2022/05/21 10:35:58;;;;;;;3.63;1.15;;;;;;;20.91;39.53;99506.38;2621408;54;20038;-66
2022/05/21 10:38:53;;;;;;;3.70;1.20;;;;;;;20.94;39.16;99504.03;2620704;39;20400;-67
2022/05/21 10:41:40;;;;;;;3.03;1.60;;;;;;;20.83;39.55;99504.91;2620842;39;20430;-67
2022/05/21 10:44:22;;;;;;;4.05;1.42;;;;;;;20.94;39.83;99498.66;2620743;54;20034;-66
2022/05/21 10:47:02;;;;;;;3.92;1.65;;;;;;;21.02;39.45;99494.72;2620519;54;20625;-65
2022/05/21 10:50:00;;;;;;;3.50;1.35;;;;;;;21.11;39.41;99489.78;2621426;54;20576;-66
2022/05/21 10:52:38;;;;;;;1.85;1.50;;;;;;;21.20;39.74;99493.69;2623918;54;20523;-67
2022/05/21 10:55:16;;;;;;;3.03;1.67;;;;;;;21.05;38.44;99486.16;2623793;54;20534;-69
2022/05/21 10:58:07;;;;;;;3.65;1.30;;;;;;;21.03;39.18;99491.00;2624347;54;20026;-69
2022/05/21 11:00:47;;;;;;;1.88;1.10;;;;;;;21.05;39.31;99493.44;2623726;54;20038;-68
2022/05/21 11:03:40;;;;;;;2.25;1.00;;;;;;;20.98;38.81;99485.50;2621048;47;20125;-67
2022/05/21 11:06:39;;;;;;;1.77;1.00;;;;;;;20.87;38.74;99478.38;2619454;54;20087;-70
2022/05/21 11:09:19;;;;;;;3.22;1.25;;;;;;;20.95;39.00;99478.78;2620550;54;20119;-66
2022/05/21 11:11:59;;;;;;;3.92;1.00;;;;;;;21.23;38.46;99477.88;2620322;54;20034;-66
2022/05/21 11:14:33;;;;;;;1.95;1.00;;;;;;;21.51;38.33;99481.50;2619548;54;20046;-68
2022/05/21 11:17:21;;;;;;;2.08;0.98;;;;;;;21.38;38.59;99473.81;2621014;54;20046;-66
2022/05/21 11:19:56;;;;;;;2.80;1.23;;;;;;;21.32;38.19;99472.09;2620660;54;20030;-67
2022/05/21 11:22:42;;;;;;;3.60;1.27;;;;;;;21.35;38.14;99472.44;2620691;54;20042;-67
2022/05/21 11:25:17;;;;;;;2.97;1.25;;;;;;;21.62;37.38;99469.84;2620428;54;20035;-65
2022/05/21 11:27:54;;;;;;;1.90;1.00;;;;;;;21.69;37.23;99470.47;2620507;47;20034;-67
2022/05/21 11:30:26;;;;;;;4.38;1.25;;;;;;;21.72;37.85;99467.31;2621898;39;20425;-66
2022/05/21 11:38:33;;;;;;;2.30;1.10;;;;;;;21.48;38.33;99476.66;2621497;54;20034;-67
2022/05/21 11:46:57;;;;;;;2.85;1.48;;;;;;;21.60;36.85;99465.78;2620543;54;20034;-67
2022/05/21 11:49:46;;;;;;;4.60;1.08;;;;;;;21.48;37.11;99472.09;2620397;47;20026;-67
2022/05/21 11:52:49;;;;;;;1.65;0.90;;;;;;;21.54;37.66;99470.25;2621200;54;20034;-67
2022/05/21 11:55:25;;;;;;;2.72;1.40;;;;;;;21.66;38.14;99464.78;2622297;54;20045;-67
2022/05/21 11:57:56;;;;;;;5.00;1.17;;;;;;;21.97;37.07;99450.66;2622786;39;20874;-68
2022/05/21 12:00:51;;;;;;;1.60;0.90;;;;;;;22.15;36.56;99446.84;2620736;54;20037;-67
2022/05/21 12:03:24;;;;;;;2.00;1.10;;;;;;;22.29;36.17;99452.66;2620710;54;20034;-67
2022/05/21 12:05:58;;;;;;;2.22;0.95;;;;;;;22.16;36.39;99456.53;2621411;54;20023;-67
2022/05/21 12:08:42;;;;;;;4.70;1.10;;;;;;;22.27;35.21;99451.28;2620241;47;20042;-67
2022/05/21 12:11:45;;;;;;;2.58;1.10;;;;;;;22.25;36.00;99444.25;2620191;54;20043;-65
2022/05/21 12:14:22;;;;;;;2.72;1.05;;;;;;;22.33;35.81;99443.00;2619624;54;20046;-68
2022/05/21 12:16:57;;;;;;;3.03;1.42;;;;;;;22.37;35.43;99440.59;2619356;54;20031;-70
2022/05/21 12:20:05;;;;;;;3.80;1.38;;;;;;;22.09;35.54;99439.75;2622607;54;20038;-67
2022/05/21 12:22:47;;;;;;;3.03;1.33;;;;;;;22.08;35.72;99448.88;2622753;47;20723;-68
2022/05/21 12:26:01;;;;;;;2.83;1.40;;;;;;;22.07;36.00;99439.16;2622256;47;20045;-70
2022/05/21 12:28:46;;;;;;;2.30;1.10;;;;;;;22.08;36.29;99432.72;2618365;47;20049;-66
2022/05/21 12:31:29;;;;;;;1.88;1.10;;;;;;;22.14;36.07;99437.13;2619796;54;20819;-67
2022/05/21 12:34:40;;;;;;;0.65;0.65;;;;;;;22.27;35.97;99440.50;2622249;54;20598;-67
2022/05/21 12:37:17;;;;;;;;;;;;;;;22.41;36.16;99422.84;2620593;54;20042;-67